Time;durP1;ratioP1;P1;durP2;ratioP2;P2;SDS_P1;SDS_P2;PMS_P1;PMS_P2;Temp;Humidity;BMP_temperature;BMP_pressure;BME280_temperature;BME280_humidity;BME280_pressure;Samples;Min_cycle;Max_cycle;Signal;HPM_P1;HPM_P2
2022/04/16 00:00:50;;;;;;;19.23;12.60;;;7.90;99.90;;;;;;5051733;28;20052;-87
2022/04/16 00:03:16;;;;;;;15.20;11.98;;;7.80;99.90;;;;;;5053266;28;20040;-87
2022/04/16 00:05:42;;;;;;;14.07;11.52;;;7.70;99.90;;;;;;5054735;28;20036;-86
2022/04/16 00:08:08;;;;;;;17.77;12.15;;;7.60;99.90;;;;;;5071493;28;20044;-88
2022/04/16 00:10:34;;;;;;;18.10;13.00;;;7.50;99.90;;;;;;5057207;28;20037;-84
2022/04/16 00:13:00;;;;;;;17.20;12.07;;;7.40;99.90;;;;;;5050672;28;20503;-85
2022/04/16 00:15:26;;;;;;;20.85;13.98;;;7.30;99.90;;;;;;5049758;28;20041;-87
2022/04/16 00:17:53;;;;;;;15.82;12.75;;;7.30;99.90;;;;;;5055879;28;20041;-88
2022/04/16 00:20:18;;;;;;;16.65;12.85;;;7.20;99.90;;;;;;5057020;28;20044;-88
2022/04/16 00:22:44;;;;;;;20.67;14.00;;;7.10;99.90;;;;;;5071396;28;20048;-88
2022/04/16 00:25:11;;;;;;;20.25;12.65;;;7.00;99.90;;;;;;5054828;28;20060;-88
2022/04/16 00:27:37;;;;;;;15.90;12.70;;;6.90;99.90;;;;;;5059936;28;20044;-84
2022/04/16 00:30:04;;;;;;;18.40;13.52;;;7.00;99.90;;;;;;5074145;28;20424;-84
2022/04/16 00:32:29;;;;;;;19.83;14.45;;;7.20;99.90;;;;;;5036399;28;20053;-82
2022/04/16 00:34:55;;;;;;;18.52;12.75;;;7.20;99.90;;;;;;5055075;28;20041;-84
2022/04/16 00:37:21;;;;;;;20.90;13.82;;;7.30;99.90;;;;;;5050868;28;20053;-82
2022/04/16 00:39:46;;;;;;;16.90;12.40;;;7.50;99.90;;;;;;5060178;28;20706;-84
2022/04/16 00:42:12;;;;;;;19.02;14.60;;;7.50;99.90;;;;;;5059236;28;20120;-84
2022/04/16 00:44:37;;;;;;;17.63;13.88;;;7.50;99.90;;;;;;5059506;28;20029;-84
2022/04/16 00:47:04;;;;;;;17.25;13.90;;;7.60;99.90;;;;;;5050825;28;20495;-85
2022/04/16 00:49:30;;;;;;;15.95;13.32;;;7.60;99.90;;;;;;5060302;28;20045;-85
2022/04/16 00:51:56;;;;;;;22.30;15.40;;;7.60;99.90;;;;;;5055510;28;20048;-84
2022/04/16 00:54:22;;;;;;;22.58;14.27;;;7.60;99.90;;;;;;5061579;28;20075;-85
2022/04/16 00:56:47;;;;;;;19.00;13.98;;;7.60;99.90;;;;;;5072537;28;20129;-84
2022/04/16 00:59:13;;;;;;;17.75;14.07;;;7.60;99.90;;;;;;5063878;28;20464;-84
2022/04/16 01:01:39;;;;;;;18.50;14.75;;;7.60;99.90;;;;;;5065034;28;20040;-82
2022/04/16 01:04:05;;;;;;;24.88;17.77;;;7.70;99.90;;;;;;5064448;28;20040;-83
2022/04/16 01:06:42;;;;;;;24.50;17.10;;;7.70;99.90;;;;;;5077274;28;20052;-82
2022/04/16 01:09:07;;;;;;;18.58;16.58;;;7.70;99.90;;;;;;5076525;28;20040;-83
2022/04/16 01:11:33;;;;;;;25.73;15.38;;;7.70;99.90;;;;;;5063897;28;20684;-84
2022/04/16 01:14:00;;;;;;;16.73;14.68;;;7.70;99.90;;;;;;5054837;28;20491;-82
2022/04/16 01:16:30;;;;;;;22.50;15.02;;;7.70;99.90;;;;;;5059742;28;20041;-83
2022/04/16 01:18:56;;;;;;;49.90;16.15;;;7.70;99.90;;;;;;5062337;28;20041;-83
2022/04/16 01:21:22;;;;;;;18.95;16.77;;;7.70;99.90;;;;;;5068804;28;20040;-84
2022/04/16 01:23:48;;;;;;;18.52;15.27;;;7.70;99.90;;;;;;5069695;28;20040;-83
2022/04/16 01:26:14;;;;;;;20.92;15.23;;;7.70;99.90;;;;;;5077316;28;20152;-83
2022/04/16 01:28:46;;;;;;;21.42;16.63;;;7.60;99.90;;;;;;5074723;28;20040;-83
2022/04/16 01:31:12;;;;;;;21.40;15.95;;;7.60;99.90;;;;;;5066072;28;20394;-83
2022/04/16 01:33:37;;;;;;;18.80;15.98;;;7.50;99.90;;;;;;5057828;28;20043;-83
2022/04/16 01:36:03;;;;;;;19.50;14.45;;;7.40;99.90;;;;;;5055667;28;20037;-83
2022/04/16 01:38:28;;;;;;;21.63;15.88;;;7.30;99.90;;;;;;5057952;28;20044;-83
2022/04/16 01:40:55;;;;;;;19.30;15.38;;;7.30;99.90;;;;;;5074826;28;20111;-86
2022/04/16 01:43:21;;;;;;;23.95;17.02;;;7.20;99.90;;;;;;5064476;28;20044;-85
2022/04/16 01:45:49;;;;;;;19.38;15.13;;;7.20;99.90;;;;;;5053463;28;20487;-86
2022/04/16 01:48:19;;;;;;;20.80;15.95;;;7.10;99.90;;;;;;5062702;28;20045;-87
2022/04/16 01:50:51;;;;;;;22.95;16.88;;;6.90;99.90;;;;;;5069675;28;20055;-86
2022/04/16 01:53:16;;;;;;;17.63;14.80;;;6.90;99.90;;;;;;5053571;28;20044;-88
2022/04/16 01:55:42;;;;;;;20.35;15.55;;;6.80;99.90;;;;;;5053320;28;20530;-86
2022/04/16 01:58:08;;;;;;;19.42;16.13;;;6.70;99.90;;;;;;5054909;28;20080;-83
2022/04/16 02:00:35;;;;;;;23.92;19.23;;;6.60;99.90;;;;;;5053738;28;20509;-87
2022/04/16 02:03:01;;;;;;;29.40;20.50;;;6.70;99.90;;;;;;5060685;28;20438;-87
2022/04/16 02:05:26;;;;;;;28.52;20.05;;;6.70;99.90;;;;;;5073529;28;20044;-87
2022/04/16 02:07:52;;;;;;;23.83;19.95;;;6.60;99.90;;;;;;5071530;28;20538;-87
2022/04/16 02:10:19;;;;;;;29.75;20.35;;;6.60;99.90;;;;;;5052898;28;20044;-87
2022/04/16 02:12:45;;;;;;;24.10;19.50;;;6.60;99.90;;;;;;5066889;28;20060;-87
2022/04/16 02:15:11;;;;;;;29.30;20.23;;;6.70;99.90;;;;;;5053817;28;20071;-85
2022/04/16 02:17:38;;;;;;;29.40;20.10;;;6.70;99.90;;;;;;5064635;28;20574;-86
2022/04/16 02:20:08;;;;;;;28.45;21.83;;;6.70;99.90;;;;;;5072263;28;20036;-87
2022/04/16 02:22:40;;;;;;;;;;;6.60;99.90;;;;;;5061373;28;20116;-86
2022/04/16 02:25:08;;;;;;;30.25;21.17;;;6.60;99.90;;;;;;5086434;28;19920;-87
2022/04/16 02:27:34;;;;;;;28.27;19.52;;;6.50;99.90;;;;;;5080531;28;20406;-87
2022/04/16 02:30:04;;;;;;;28.08;20.00;;;6.50;99.90;;;;;;5070498;28;20838;-86
2022/04/16 02:32:31;;;;;;;27.63;19.80;;;6.30;99.90;;;;;;5080291;28;20059;-86
2022/04/16 02:34:57;;;;;;;26.33;18.85;;;6.20;99.90;;;;;;5073353;28;20045;-85
2022/04/16 02:37:22;;;;;;;25.30;18.58;;;6.10;99.90;;;;;;5075661;28;20044;-80
2022/04/16 02:39:48;;;;;;;29.45;22.08;;;6.10;99.90;;;;;;5085175;28;20033;-86
2022/04/16 02:42:13;;;;;;;29.10;21.25;;;6.20;99.90;;;;;;5060664;28;20490;-87
2022/04/16 02:47:23;;;;;;;25.63;20.63;;;6.00;99.90;;;;;;5074290;28;20044;-90
2022/04/16 02:49:49;;;;;;;25.75;20.00;;;6.00;99.90;;;;;;5056055;28;20041;-89
2022/04/16 02:52:14;;;;;;;27.17;20.02;;;6.00;99.90;;;;;;5052652;28;20045;-89
2022/04/16 02:54:41;;;;;;;31.67;22.13;;;6.00;99.90;;;;;;5052640;28;20045;-87
2022/04/16 02:57:06;;;;;;;29.85;21.20;;;6.00;99.90;;;;;;5070958;28;20040;-88
2022/04/16 02:59:33;;;;;;;37.42;23.73;;;6.00;99.90;;;;;;5056803;28;20419;-88
2022/04/16 03:01:59;;;;;;;28.63;22.92;;;6.00;99.90;;;;;;5052841;28;20123;-89
2022/04/16 03:04:26;;;;;;;26.98;22.27;;;6.00;99.90;;;;;;5052369;28;20424;-88
2022/04/16 03:06:52;;;;;;;33.95;22.38;;;6.00;99.90;;;;;;5052326;28;20117;-88
2022/04/16 03:09:18;;;;;;;32.47;22.90;;;6.20;99.90;;;;;;5054814;28;20120;-87
2022/04/16 03:11:44;;;;;;;34.75;25.73;;;6.10;99.90;;;;;;5050158;28;20052;-88
2022/04/16 03:19:38;;;;;;;30.70;22.67;;;6.10;99.90;;;;;;5053065;28;20049;-88
2022/04/16 03:22:04;;;;;;;31.20;22.67;;;6.00;99.90;;;;;;5057290;28;20124;-87
2022/04/16 03:24:30;;;;;;;33.38;23.58;;;6.00;99.90;;;;;;5056795;28;20056;-84
2022/04/16 03:26:56;;;;;;;34.60;23.83;;;6.00;99.90;;;;;;5058460;28;20040;-87
2022/04/16 03:29:21;;;;;;;27.77;20.92;;;5.90;99.90;;;;;;5053357;28;20076;-87
2022/04/16 03:31:47;;;;;;;30.92;23.00;;;5.80;99.90;;;;;;5052196;28;20045;-86
2022/04/16 03:34:12;;;;;;;31.63;23.65;;;5.70;99.90;;;;;;5053295;28;20515;-87
2022/04/16 03:36:38;;;;;;;26.92;20.83;;;5.70;99.90;;;;;;5068264;28;20036;-87
2022/04/16 03:39:04;;;;;;;33.28;23.23;;;5.70;99.90;;;;;;5056644;28;20037;-89
2022/04/16 03:41:29;;;;;;;36.33;23.08;;;5.80;99.90;;;;;;5066392;28;20567;-88
2022/04/16 03:43:55;;;;;;;31.98;22.42;;;5.80;99.90;;;;;;5062640;28;20056;-90
2022/04/16 03:46:22;;;;;;;32.08;21.92;;;5.70;99.90;;;;;;5046450;28;20443;-88
2022/04/16 03:48:48;;;;;;;30.70;23.13;;;5.70;99.90;;;;;;5054901;28;20115;-88
2022/04/16 03:51:14;;;;;;;29.88;22.20;;;5.60;99.90;;;;;;5050109;28;20119;-87
2022/04/16 03:53:39;;;;;;;35.95;25.05;;;5.70;99.90;;;;;;5050805;28;20040;-86
2022/04/16 04:01:34;;;;;;;42.63;26.45;;;5.90;99.90;;;;;;5055717;28;20049;-87
2022/04/16 04:03:59;;;;;;;43.05;28.30;;;6.00;99.90;;;;;;5050590;28;20044;-87
2022/04/16 04:06:25;;;;;;;45.75;28.23;;;6.20;99.90;;;;;;5064786;28;20391;-86
2022/04/16 04:08:50;;;;;;;42.22;27.27;;;6.20;99.90;;;;;;5068741;28;20049;-83
2022/04/16 04:11:16;;;;;;;42.63;27.17;;;6.30;99.90;;;;;;5070720;28;20060;-87
2022/04/16 04:13:41;;;;;;;43.05;30.30;;;6.40;99.90;;;;;;5059953;28;20049;-86
2022/04/16 04:16:07;;;;;;;45.95;28.08;;;6.60;99.90;;;;;;5053452;28;20033;-88
2022/04/16 04:18:33;;;;;;;40.30;29.17;;;6.70;99.90;;;;;;5054064;28;20049;-88
2022/04/16 04:20:58;;;;;;;47.33;29.05;;;6.70;99.90;;;;;;5060813;28;20049;-86
2022/04/16 04:23:24;;;;;;;41.38;29.48;;;6.80;99.90;;;;;;5065966;28;20521;-88
2022/04/16 04:25:50;;;;;;;41.25;29.40;;;6.80;99.90;;;;;;5067962;28;20497;-86
2022/04/16 04:28:16;;;;;;;42.85;30.10;;;6.90;99.90;;;;;;5073826;28;20402;-87
2022/04/16 04:30:42;;;;;;;45.67;31.40;;;6.90;99.90;;;;;;5058690;28;20037;-87
2022/04/16 04:33:07;;;;;;;45.50;31.92;;;7.00;99.90;;;;;;5061444;28;20043;-85
2022/04/16 04:35:33;;;;;;;44.72;30.58;;;7.10;99.90;;;;;;5071996;28;20052;-87
2022/04/16 04:37:58;;;;;;;41.03;29.60;;;7.20;99.90;;;;;;5078387;28;20100;-86
2022/04/16 04:40:24;;;;;;;39.47;28.38;;;7.20;99.90;;;;;;5057079;28;20045;-86
2022/04/16 04:42:50;;;;;;;46.95;31.40;;;7.30;99.90;;;;;;5054654;28;20048;-86
2022/04/16 04:45:16;;;;;;;38.22;30.00;;;7.30;99.90;;;;;;5058348;28;20395;-86
2022/04/16 04:47:42;;;;;;;37.90;30.15;;;7.30;99.90;;;;;;5074569;28;20045;-86
2022/04/16 04:50:09;;;;;;;40.78;30.85;;;7.40;99.90;;;;;;5075191;28;20052;-87
2022/04/16 04:52:38;;;;;;;42.80;28.92;;;7.40;99.90;;;;;;5070201;28;20048;-88
2022/04/16 04:55:08;;;;;;;38.60;28.23;;;7.40;99.90;;;;;;5066399;28;20039;-86
2022/04/16 04:57:34;;;;;;;43.10;30.75;;;7.50;99.90;;;;;;5054527;28;20487;-87
2022/04/16 04:59:59;;;;;;;39.92;30.85;;;7.60;99.90;;;;;;5059186;28;20043;-84
2022/04/16 05:02:25;;;;;;;40.25;32.20;;;7.60;99.90;;;;;;5068909;28;20044;-85
2022/04/16 05:04:50;;;;;;;43.70;30.88;;;7.70;99.90;;;;;;5065961;28;20064;-85
2022/04/16 05:07:16;;;;;;;43.58;30.13;;;7.70;99.90;;;;;;5068829;28;20053;-85
2022/04/16 05:09:42;;;;;;;42.80;29.67;;;7.80;99.90;;;;;;5079942;28;20032;-87
2022/04/16 05:12:07;;;;;;;45.45;31.83;;;7.80;99.90;;;;;;5074279;28;20044;-87
2022/04/16 05:14:33;;;;;;;40.92;30.38;;;7.80;99.90;;;;;;5080391;28;20037;-85
2022/04/16 05:16:59;;;;;;;43.75;31.08;;;7.90;99.90;;;;;;5076852;28;20453;-86
2022/04/16 05:19:25;;;;;;;41.90;33.60;;;7.90;99.90;;;;;;5069517;28;20544;-88
2022/04/16 05:21:50;;;;;;;39.65;31.73;;;7.90;99.90;;;;;;5055036;28;20047;-87
2022/04/16 05:24:16;;;;;;;44.40;32.70;;;7.90;99.90;;;;;;5054171;28;20487;-85
2022/04/16 05:26:42;;;;;;;47.20;33.42;;;7.90;99.90;;;;;;5068719;28;20066;-85
2022/04/16 05:29:07;;;;;;;45.70;34.65;;;8.00;99.90;;;;;;5073875;28;20068;-84
2022/04/16 05:31:34;;;;;;;40.53;29.88;;;7.90;99.90;;;;;;5055304;28;20037;-80
2022/04/16 05:34:18;;;;;;;45.75;34.42;;;8.00;99.90;;;;;;5068180;28;20131;-87
2022/04/16 05:36:46;;;;;;;45.35;35.20;;;8.00;99.90;;;;;;5040891;28;20040;-87
2022/04/16 05:39:12;;;;;;;48.25;33.17;;;8.00;99.90;;;;;;5068890;28;20109;-87
2022/04/16 05:41:37;;;;;;;47.50;35.22;;;8.00;99.90;;;;;;5072450;28;20120;-86
2022/04/16 05:44:05;;;;;;;42.70;32.10;;;8.00;99.90;;;;;;5055524;28;20499;-87
2022/04/16 05:46:31;;;;;;;43.42;34.17;;;8.00;99.90;;;;;;5072171;28;20044;-88
2022/04/16 05:48:57;;;;;;;42.45;30.42;;;8.00;99.90;;;;;;5057763;28;20044;-90
2022/04/16 05:51:24;;;;;;;41.42;32.22;;;8.00;99.90;;;;;;5063842;28;20072;-89
2022/04/16 05:53:50;;;;;;;40.90;32.75;;;8.00;99.90;;;;;;5074479;28;20491;-90
2022/04/16 05:56:17;;;;;;;36.97;28.80;;;8.00;99.90;;;;;;5073092;28;20045;-87
2022/04/16 05:58:43;;;;;;;41.42;29.65;;;8.00;99.90;;;;;;5055999;28;20430;-90
2022/04/16 06:01:10;;;;;;;33.95;27.42;;;8.10;99.90;;;;;;5072039;28;20052;-90
2022/04/16 06:03:42;;;;;;;34.38;26.42;;;8.00;99.90;;;;;;5064046;28;20083;-89
2022/04/16 06:06:09;;;;;;;32.95;25.50;;;8.00;99.90;;;;;;5062171;28;20037;-90
2022/04/16 06:08:35;;;;;;;29.95;22.42;;;8.00;99.90;;;;;;5058455;28;20067;-88
2022/04/16 06:11:04;;;;;;;30.10;21.73;;;7.90;99.90;;;;;;5075741;28;20043;-91
2022/04/16 06:13:30;;;;;;;27.10;19.80;;;7.90;99.90;;;;;;5079754;28;20765;-90
2022/04/16 06:15:57;;;;;;;23.88;19.10;;;7.80;99.90;;;;;;5079049;28;20082;-85
2022/04/16 06:18:22;;;;;;;23.08;18.90;;;7.80;99.90;;;;;;5098410;28;20101;-87
2022/04/16 06:20:48;;;;;;;23.92;18.45;;;7.90;99.90;;;;;;5068790;28;20040;-88
2022/04/16 06:23:14;;;;;;;21.65;17.10;;;7.80;99.90;;;;;;5057183;28;20049;-90
2022/04/16 06:25:39;;;;;;;22.05;16.77;;;7.90;99.90;;;;;;5066543;28;20041;-88
2022/04/16 06:28:05;;;;;;;22.30;15.85;;;7.90;99.90;;;;;;5076216;28;20065;-88
2022/04/16 06:30:31;;;;;;;22.98;16.63;;;7.90;99.90;;;;;;5056117;28;20041;-88
2022/04/16 06:32:57;;;;;;;21.02;16.10;;;8.10;99.90;;;;;;5054140;28;20132;-89
2022/04/16 06:35:23;;;;;;;23.13;17.20;;;8.20;99.90;;;;;;5054644;28;20040;-90
2022/04/16 06:37:49;;;;;;;20.95;15.50;;;8.20;99.90;;;;;;5062225;28;20044;-90
2022/04/16 06:40:15;;;;;;;21.33;14.57;;;8.20;99.90;;;;;;5058405;28;20036;-87
2022/04/16 06:42:41;;;;;;;20.83;15.73;;;8.30;99.90;;;;;;5054581;28;20063;-90
2022/04/16 06:45:09;;;;;;;21.45;13.90;;;8.50;99.90;;;;;;5061091;28;20037;-88
2022/04/16 06:47:35;;;;;;;20.75;15.40;;;8.40;99.90;;;;;;5051233;28;20049;-88
2022/04/16 06:50:01;;;;;;;18.30;13.40;;;8.30;99.90;;;;;;5055801;28;20075;-89
2022/04/16 06:52:27;;;;;;;18.95;14.20;;;8.40;99.90;;;;;;5054332;28;20037;-87
2022/04/16 06:54:59;;;;;;;20.55;14.48;;;8.40;99.90;;;;;;5052746;28;20094;-80
2022/04/16 06:57:42;;;;;;;22.67;15.17;;;8.40;99.90;;;;;;5054997;28;20044;-88
2022/04/16 07:00:08;;;;;;;19.90;14.07;;;8.50;99.90;;;;;;5074578;28;20055;-87
2022/04/16 07:02:34;;;;;;;18.65;14.35;;;8.50;99.90;;;;;;5067019;28;20036;-88
2022/04/16 07:05:01;;;;;;;18.33;12.80;;;8.70;99.90;;;;;;5052843;28;20068;-89
2022/04/16 07:07:26;;;;;;;19.17;13.68;;;8.70;99.90;;;;;;5053990;28;20045;-88
2022/04/16 07:09:53;;;;;;;17.42;12.48;;;8.80;99.90;;;;;;5050964;28;20041;-79
2022/04/16 07:12:21;;;;;;;20.10;13.35;;;9.00;99.90;;;;;;5058247;28;20072;-86
2022/04/16 07:14:47;;;;;;;16.77;12.77;;;8.70;99.90;;;;;;5053255;28;20087;-85
2022/04/16 07:17:13;;;;;;;17.58;12.60;;;8.90;99.90;;;;;;5057594;28;20045;-87
2022/04/16 07:19:38;;;;;;;20.25;13.40;;;8.90;99.90;;;;;;5065710;28;20041;-82
2022/04/16 07:22:04;;;;;;;17.98;12.70;;;8.90;99.90;;;;;;5057854;28;20131;-88
2022/04/16 07:24:30;;;;;;;20.67;14.38;;;9.00;99.90;;;;;;5055370;28;20073;-87
2022/04/16 07:26:56;;;;;;;14.13;12.63;;;9.10;99.90;;;;;;5062853;28;20502;-87
2022/04/16 07:29:25;;;;;;;15.98;11.63;;;9.10;99.90;;;;;;5038002;28;20499;-85
2022/04/16 07:31:50;;;;;;;17.35;13.02;;;9.30;99.90;;;;;;5066175;28;20033;-87
2022/04/16 07:34:16;;;;;;;16.45;10.95;;;9.30;99.90;;;;;;5068337;28;20025;-87
2022/04/16 07:36:43;;;;;;;17.58;11.60;;;9.30;99.90;;;;;;5073437;28;20033;-84
2022/04/16 07:39:09;;;;;;;21.85;13.20;;;9.40;99.90;;;;;;5069430;28;20045;-82
2022/04/16 07:41:34;;;;;;;17.65;12.15;;;9.60;99.90;;;;;;5057157;28;20041;-85
2022/04/16 07:44:03;;;;;;;20.77;13.93;;;9.90;99.90;;;;;;5057371;28;20045;-87
2022/04/16 07:46:34;;;;;;;17.65;12.00;;;9.90;99.90;;;;;;5073060;28;20044;-84
2022/04/16 07:49:01;;;;;;;17.45;10.77;;;9.70;99.90;;;;;;5075515;28;20188;-86
2022/04/16 07:51:27;;;;;;;23.70;12.73;;;9.80;99.90;;;;;;5074783;28;20059;-85
2022/04/16 07:54:11;;;;;;;14.45;11.18;;;10.00;99.90;;;;;;5067443;28;20108;-87
2022/04/16 07:56:36;;;;;;;14.48;10.68;;;9.90;99.90;;;;;;5068501;28;20090;-87
2022/04/16 07:59:02;;;;;;;15.07;10.38;;;9.90;99.90;;;;;;5068052;28;20044;-87
2022/04/16 08:01:28;;;;;;;17.55;12.23;;;10.20;99.90;;;;;;5080543;28;20044;-88
2022/04/16 08:03:53;;;;;;;14.18;10.20;;;10.10;99.90;;;;;;5061001;28;20044;-89
2022/04/16 08:06:19;;;;;;;36.85;12.63;;;10.10;99.90;;;;;;5068475;28;20098;-88
2022/04/16 08:08:44;;;;;;;15.45;10.02;;;10.00;99.90;;;;;;5035448;28;20037;-86
2022/04/16 08:11:11;;;;;;;15.88;11.18;;;10.20;99.90;;;;;;5058372;28;20047;-87
2022/04/16 08:13:37;;;;;;;15.25;11.00;;;10.10;99.90;;;;;;5056595;28;20053;-75
2022/04/16 08:16:02;;;;;;;15.23;10.23;;;10.30;99.90;;;;;;5051888;28;20196;-77
2022/04/16 08:18:28;;;;;;;22.98;10.32;;;10.20;99.90;;;;;;5062358;28;20051;-85
2022/04/16 08:20:54;;;;;;;13.25;8.73;;;10.40;99.90;;;;;;5052735;28;20029;-82
2022/04/16 08:23:19;;;;;;;14.57;8.38;;;10.50;99.90;;;;;;5064540;28;20055;-81
2022/04/16 08:25:45;;;;;;;14.75;10.02;;;10.50;99.90;;;;;;5049751;28;20517;-83
2022/04/16 08:28:10;;;;;;;12.25;9.10;;;10.60;99.90;;;;;;5059934;28;20040;-84
2022/04/16 08:30:36;;;;;;;13.13;8.88;;;10.70;99.90;;;;;;5055278;28;20049;-87
2022/04/16 08:33:02;;;;;;;13.90;9.02;;;10.50;99.90;;;;;;5051919;28;20044;-82
2022/04/16 08:35:27;;;;;;;12.38;8.23;;;10.70;99.90;;;;;;5055107;28;20039;-87
2022/04/16 08:37:53;;;;;;;11.38;8.77;;;10.80;99.90;;;;;;5059320;28;20044;-85
2022/04/16 08:40:19;;;;;;;11.32;7.85;;;11.00;99.90;;;;;;5068440;28;20036;-87
2022/04/16 08:42:48;;;;;;;14.48;8.75;;;11.00;99.90;;;;;;5070629;28;20048;-87
2022/04/16 08:45:15;;;;;;;13.90;9.07;;;11.00;99.90;;;;;;5049990;28;20052;-86
2022/04/16 08:47:41;;;;;;;10.10;6.22;;;11.10;99.90;;;;;;5052689;28;20049;-87
2022/04/16 08:50:09;;;;;;;12.90;7.90;;;11.20;99.90;;;;;;5062098;28;20044;-85
2022/04/16 08:52:37;;;;;;;9.45;6.63;;;11.00;99.90;;;;;;5057089;28;20111;-87
2022/04/16 08:55:06;;;;;;;8.85;6.90;;;11.20;99.90;;;;;;5052116;28;20036;-88
2022/04/16 08:57:31;;;;;;;10.70;6.88;;;11.20;99.90;;;;;;5051977;28;20111;-85
2022/04/16 08:59:57;;;;;;;11.40;6.72;;;11.40;99.90;;;;;;5052111;28;20072;-84
2022/04/16 09:02:27;;;;;;;14.68;6.95;;;11.50;99.90;;;;;;5052516;28;20047;-83
2022/04/16 09:05:02;;;;;;;7.35;5.38;;;11.50;99.90;;;;;;5057473;28;20067;-85
2022/04/16 09:07:28;;;;;;;9.43;5.55;;;11.30;99.90;;;;;;5064951;28;20060;-85
2022/04/16 09:09:53;;;;;;;8.52;6.18;;;11.40;99.90;;;;;;5077224;28;20037;-82
2022/04/16 09:12:20;;;;;;;6.47;4.28;;;11.50;99.90;;;;;;5077646;28;20049;-84
2022/04/16 09:14:46;;;;;;;6.97;4.50;;;11.30;99.90;;;;;;5065294;28;20056;-82
2022/04/16 09:17:16;;;;;;;6.03;4.00;;;11.30;99.90;;;;;;5061227;28;20399;-84
2022/04/16 09:19:42;;;;;;;6.40;4.63;;;11.50;99.90;;;;;;5069348;28;20117;-85
2022/04/16 09:22:11;;;;;;;6.65;3.95;;;11.40;99.90;;;;;;5065241;28;20138;-84
2022/04/16 09:24:46;;;;;;;7.22;5.07;;;11.60;99.90;;;;;;5062011;28;20507;-86
2022/04/16 09:27:12;;;;;;;8.70;4.50;;;11.70;99.90;;;;;;5054051;28;20045;-86
2022/04/16 09:29:40;;;;;;;6.22;3.70;;;11.80;99.90;;;;;;5054631;28;20048;-86
2022/04/16 09:32:07;;;;;;;5.28;3.22;;;11.90;99.90;;;;;;5056590;28;20052;-83
2022/04/16 09:34:32;;;;;;;4.07;2.60;;;12.00;99.90;;;;;;5051104;28;20059;-84
2022/04/16 09:37:11;;;;;;;3.38;2.28;;;12.00;99.90;;;;;;5056702;28;20947;-85
2022/04/16 09:39:37;;;;;;;5.95;2.95;;;12.20;99.90;;;;;;5056439;28;20045;-84
2022/04/16 09:42:03;;;;;;;4.47;2.55;;;11.90;99.90;;;;;;5052926;28;20039;-83
2022/04/16 09:44:29;;;;;;;4.25;2.30;;;12.00;99.90;;;;;;5069979;28;20041;-86
2022/04/16 09:46:55;;;;;;;3.17;2.53;;;11.90;99.90;;;;;;5049018;28;20086;-86
2022/04/16 09:49:22;;;;;;;5.00;3.20;;;12.10;99.90;;;;;;5050987;28;20041;-85
2022/04/16 09:51:49;;;;;;;3.22;2.60;;;12.00;99.90;;;;;;5050372;28;20057;-85
2022/04/16 09:54:16;;;;;;;3.00;2.20;;;12.30;99.90;;;;;;5060106;28;20037;-88
2022/04/16 09:56:49;;;;;;;3.83;2.42;;;12.40;99.90;;;;;;5050611;28;20032;-87
2022/04/16 09:59:16;;;;;;;4.65;2.40;;;12.30;99.90;;;;;;5064108;28;20100;-84
2022/04/16 10:01:47;;;;;;;2.45;2.03;;;12.20;99.90;;;;;;5060301;28;20094;-83
2022/04/16 10:04:18;;;;;;;4.72;2.75;;;12.50;99.90;;;;;;5059540;28;20037;-87
2022/04/16 10:06:48;;;;;;;5.15;2.97;;;12.50;99.90;;;;;;5061351;28;20059;-84
2022/04/16 10:09:17;;;;;;;3.90;2.83;;;12.60;99.90;;;;;;5077042;28;20041;-86
2022/04/16 10:14:38;;;;;;;5.55;3.67;;;12.60;99.90;;;;;;5055496;28;20111;-89
2022/04/16 10:17:28;;;;;;;3.80;2.85;;;12.50;99.90;;;;;;5055127;28;20502;-81
2022/04/16 10:20:04;;;;;;;8.00;3.05;;;13.00;99.90;;;;;;5056851;28;20398;-82
2022/04/16 10:22:29;;;;;;;4.00;3.13;;;12.70;99.90;;;;;;5050746;28;20049;-83
2022/04/16 10:24:58;;;;;;;4.30;2.13;;;12.80;99.90;;;;;;5054066;28;20040;-82
2022/04/16 10:27:31;;;;;;;4.03;2.08;;;13.00;99.90;;;;;;5054792;28;20078;-82
2022/04/16 10:30:09;;;;;;;5.45;1.88;;;12.80;99.90;;;;;;5055615;28;20444;-82
2022/04/16 10:32:40;;;;;;;3.17;1.92;;;12.90;99.90;;;;;;5052366;28;20057;-84
2022/04/16 10:35:15;;;;;;;3.58;2.35;;;12.60;99.90;;;;;;5058065;28;20037;-80
2022/04/16 10:37:43;;;;;;;6.18;2.03;;;13.00;99.90;;;;;;5065834;28;20056;-84
2022/04/16 10:40:23;;;;;;;3.75;1.55;;;13.20;99.90;;;;;;5060401;28;20048;-76
2022/04/16 10:42:57;;;;;;;3.72;2.45;;;13.20;99.90;;;;;;5051425;28;20045;-83
2022/04/16 10:45:24;;;;;;;3.33;1.75;;;13.20;99.90;;;;;;5060890;28;20079;-81
2022/04/16 10:47:52;;;;;;;3.33;2.00;;;13.00;99.90;;;;;;5065212;28;20533;-78
2022/04/16 10:50:19;;;;;;;3.47;2.20;;;13.00;99.90;;;;;;5066673;28;20058;-71
2022/04/16 10:52:59;;;;;;;4.22;2.60;;;13.00;99.90;;;;;;5052559;28;20052;-79
2022/04/16 10:55:36;;;;;;;;;;;13.10;99.90;;;;;;5059757;28;20098;-81
2022/04/16 10:58:06;;;;;;;4.03;2.00;;;12.80;99.90;;;;;;5056486;28;20340;-80
2022/04/16 11:00:45;;;;;;;3.60;2.30;;;12.90;99.90;;;;;;5059532;28;20703;-81
2022/04/16 11:03:13;;;;;;;6.53;2.00;;;13.20;99.90;;;;;;5061637;28;20041;-80
2022/04/16 11:05:41;;;;;;;3.05;2.25;;;13.30;99.90;;;;;;5070323;28;20094;-75
2022/04/16 11:08:08;;;;;;;3.28;2.20;;;13.30;99.90;;;;;;5052601;28;20119;-83
2022/04/16 11:10:34;;;;;;;3.20;1.75;;;13.60;99.90;;;;;;5060626;28;20571;-78
2022/04/16 11:13:01;;;;;;;2.78;1.85;;;13.50;99.90;;;;;;5048503;28;20136;-81
2022/04/16 11:15:28;;;;;;;3.67;2.03;;;13.20;99.90;;;;;;5051746;28;20041;-84
2022/04/16 11:17:58;;;;;;;3.90;2.17;;;13.20;99.90;;;;;;5061326;28;20044;-83
2022/04/16 11:20:25;;;;;;;5.47;2.28;;;13.30;99.90;;;;;;5055155;28;20056;-85
2022/04/16 11:22:51;;;;;;;4.07;2.45;;;13.30;99.90;;;;;;5063027;28;20048;-86
2022/04/16 11:25:20;;;;;;;3.60;2.13;;;13.50;99.90;;;;;;5060259;28;20044;-83
2022/04/16 11:36:08;;;;;;;2.38;1.77;;;13.60;99.90;;;;;;5060860;28;20461;-83
2022/04/16 11:38:39;;;;;;;3.05;0.95;;;13.70;99.90;;;;;;5066659;28;20086;-81
2022/04/16 11:41:10;;;;;;;0.85;0.70;;;13.60;99.10;;;;;;5070591;28;20039;-81
2022/04/16 11:43:45;;;;;;;1.77;0.93;;;13.60;97.40;;;;;;5063666;28;20048;-80
2022/04/16 11:46:12;;;;;;;1.50;1.00;;;13.70;97.30;;;;;;5057788;28;20376;-81
2022/04/16 11:48:44;;;;;;;2.33;1.50;;;13.70;96.30;;;;;;5060686;28;20040;-80
2022/04/16 11:51:12;;;;;;;2.97;1.25;;;13.20;94.70;;;;;;5070627;28;20111;-80
2022/04/16 11:53:45;;;;;;;1.02;0.60;;;13.40;94.50;;;;;;5069982;28;20080;-81
2022/04/16 11:56:10;;;;;;;1.90;0.70;;;13.60;93.60;;;;;;5072091;28;20094;-78
2022/04/16 11:58:36;;;;;;;2.45;0.63;;;13.60;92.90;;;;;;5061502;28;20045;-81
2022/04/16 12:01:03;;;;;;;0.57;0.30;;;14.20;93.50;;;;;;5067065;28;20478;-81
2022/04/16 12:03:39;;;;;;;1.83;0.50;;;14.00;91.90;;;;;;5064574;28;20040;-84
2022/04/16 12:06:13;;;;;;;1.60;0.60;;;13.90;91.90;;;;;;5061768;28;20056;-84
2022/04/16 12:08:42;;;;;;;2.72;0.77;;;14.20;92.60;;;;;;5056657;28;20044;-75
2022/04/16 12:11:09;;;;;;;0.73;0.35;;;13.80;89.00;;;;;;5057688;28;20558;-84
2022/04/16 12:13:39;;;;;;;3.30;0.60;;;14.30;90.50;;;;;;5071770;28;20113;-85
2022/04/16 12:16:15;;;;;;;3.55;0.90;;;14.00;89.00;;;;;;5060280;28;20032;-81
2022/04/16 12:18:42;;;;;;;1.83;0.63;;;14.00;88.10;;;;;;5051488;28;20053;-82
2022/04/16 12:21:15;;;;;;;2.20;1.20;;;14.40;90.40;;;;;;5055239;28;20040;-83
2022/04/16 12:23:43;;;;;;;2.35;0.30;;;14.10;84.60;;;;;;5069975;28;20045;-85
2022/04/16 12:26:11;;;;;;;1.45;0.63;;;14.30;86.50;;;;;;5065535;28;20080;-78
2022/04/16 12:28:38;;;;;;;1.00;0.40;;;14.60;85.00;;;;;;5050221;28;20467;-79
2022/04/16 12:31:04;;;;;;;7.57;1.95;;;14.50;82.60;;;;;;5054000;28;20119;-76
2022/04/16 12:33:30;;;;;;;2.10;0.50;;;14.40;86.00;;;;;;5070211;28;20523;-76
2022/04/16 12:35:58;;;;;;;0.93;0.45;;;14.30;83.60;;;;;;5068895;28;20107;-76
2022/04/16 12:38:25;;;;;;;5.43;1.75;;;14.00;81.10;;;;;;5068425;28;20051;-77
2022/04/16 12:40:52;;;;;;;3.08;0.40;;;14.20;85.60;;;;;;5067492;28;20060;-79
2022/04/16 12:43:18;;;;;;;0.77;0.50;;;14.10;81.20;;;;;;5072077;28;20041;-77
2022/04/16 12:45:43;;;;;;;1.23;0.50;;;14.30;83.30;;;;;;5063329;28;20053;-79
2022/04/16 12:48:09;;;;;;;1.95;0.70;;;14.30;83.60;;;;;;5060535;28;20106;-78
2022/04/16 12:50:35;;;;;;;1.98;0.25;;;14.20;82.50;;;;;;5064504;28;20047;-79
2022/04/16 12:53:04;;;;;;;0.55;0.50;;;14.10;81.60;;;;;;5074380;28;20092;-82
2022/04/16 12:55:30;;;;;;;21.55;2.45;;;14.10;83.70;;;;;;5066751;28;20384;-78
2022/04/16 12:57:56;;;;;;;1.48;1.13;;;14.10;87.90;;;;;;5038070;28;20045;-80
2022/04/16 13:00:22;;;;;;;6.35;1.20;;;14.40;88.70;;;;;;5059635;28;20040;-80
2022/04/16 13:02:47;;;;;;;0.55;0.40;;;14.50;89.30;;;;;;5074822;28;20044;-79
2022/04/16 13:05:15;;;;;;;2.03;0.40;;;14.30;83.20;;;;;;5067827;28;20025;-77